SPHI/CIX METAR and TAF weather

Enter ICAO airport designator
Station Type Date Time Source
SPHI METAR 2022/09/25 23:00 UTC NOAA

SPHI 252300Z 18022KT 9999 FEW015 17/11 Q1011 RMK BIRD HAZARD RWY 19/01 HZ/S PP000


Station Type Date Time Source
SPHI Decoded METAR 2022/09/25 23:00 UTC NOAA

Chiclayo, Peru (SPHI) 06-47S 079-50W 34M
Sep 25, 2022 - 07:00 PM EDT / 2022.09.25 2300 UTC
Wind: from the S (180 degrees) at 25 MPH (22 KT):0
Visibility: greater than 7 mile(s):0
Sky conditions: mostly clear
Temperature: 62 F (17 C)
Dew Point: 51 F (11 C)
Relative Humidity: 67%
Pressure (altimeter): 29.85 in. Hg (1011 hPa)
ob: SPHI 252300Z 18022KT 9999 FEW015 17/11 Q1011 RMK BIRD HAZARD RWY 19/01 HZ/S PP000
cycle: 23

Station Type Date Time Source
SPHI TAF 2022/09/25 18:34 UTC NOAA

TAF SPHI 251700Z 2518/2618 18020KT CAVOK TX21/2519Z TN15/2611Z
BECMG 2523/2601 160015
FM261100 17010KT 9999 BKN010
BECMG 2613/2615 BKN015

Example: see airport list